createdAt,value
2016-10-19T00:00:58.718Z,1008.51
2016-10-19T00:05:56.211Z,1008.35
2016-10-19T00:10:52.782Z,1008.16
2016-10-19T00:15:49.231Z,1008.16
2016-10-19T00:20:46.108Z,1008.12
2016-10-19T00:25:42.587Z,1008.04
2016-10-19T00:30:39.092Z,1008.11
2016-10-19T00:35:35.554Z,1008.05
2016-10-19T00:40:32.004Z,1007.97
2016-10-19T00:45:29.053Z,1007.99
2016-10-19T00:50:25.493Z,1007.94
2016-10-19T00:55:22.613Z,1007.91
2016-10-19T01:00:19.014Z,1007.91
2016-10-19T01:05:15.399Z,1007.89
2016-10-19T01:10:11.955Z,1007.93
2016-10-19T01:15:08.409Z,1007.95
2016-10-19T01:20:04.851Z,1007.99
2016-10-19T01:25:00.856Z,1007.91
2016-10-19T01:29:57.474Z,1007.74
2016-10-19T01:34:54.003Z,1007.52
2016-10-19T01:39:50.417Z,1007.40
2016-10-19T01:44:46.765Z,1007.51
2016-10-19T01:49:43.138Z,1007.48
2016-10-19T01:54:40.995Z,1007.40
2016-10-19T01:59:37.416Z,1007.52
2016-10-19T02:04:33.813Z,1007.51
2016-10-19T02:09:30.296Z,1007.48
2016-10-19T02:14:29.255Z,1007.41
2016-10-19T02:19:25.115Z,1007.32
2016-10-19T02:24:21.637Z,1007.42
2016-10-19T02:29:18.021Z,1007.40
2016-10-19T02:34:15.949Z,1007.38
2016-10-19T02:39:12.354Z,1007.38
2016-10-19T02:44:08.535Z,1007.35
2016-10-19T02:49:04.960Z,1007.27
2016-10-19T02:54:01.588Z,1007.33
2016-10-19T02:58:58.475Z,1007.28
2016-10-19T03:03:55.436Z,1007.36
2016-10-19T03:08:54.705Z,1007.28
2016-10-19T03:13:51.522Z,1007.34
2016-10-19T03:18:47.805Z,1007.18
2016-10-19T03:23:45.303Z,1007.20
2016-10-19T03:28:41.575Z,1007.18
2016-10-19T03:33:38.000Z,1007.15
2016-10-19T03:38:34.448Z,1007.16
2016-10-19T03:43:30.789Z,1007.06
2016-10-19T03:48:27.695Z,1007.09
2016-10-19T03:53:24.198Z,1007.01
2016-10-19T03:58:20.576Z,1007.03
2016-10-19T04:03:17.011Z,1007.01
2016-10-19T04:08:13.852Z,1006.91
2016-10-19T04:13:10.088Z,1006.87
2016-10-19T04:18:06.829Z,1007.01
2016-10-19T04:23:03.366Z,1006.95
2016-10-19T04:27:59.846Z,1007.00
2016-10-19T04:32:56.376Z,1006.90
2016-10-19T04:37:53.044Z,1006.98
2016-10-19T04:42:49.381Z,1006.94
2016-10-19T04:47:46.616Z,1006.98
2016-10-19T04:52:43.011Z,1006.89
2016-10-19T04:57:39.332Z,1006.72
2016-10-19T05:02:35.644Z,1006.64
2016-10-19T05:07:32.641Z,1006.65
2016-10-19T05:12:28.731Z,1006.66
2016-10-19T05:17:25.142Z,1006.52
2016-10-19T05:22:21.662Z,1006.52
2016-10-19T05:27:18.159Z,1006.68
2016-10-19T05:32:14.715Z,1006.48
2016-10-19T05:37:11.194Z,1006.46
2016-10-19T05:42:09.215Z,1006.53
2016-10-19T05:47:05.422Z,1006.47
2016-10-19T05:52:01.919Z,1006.47
2016-10-19T05:57:01.018Z,1006.49
2016-10-19T06:01:56.992Z,1006.48
2016-10-19T06:06:56.018Z,1006.40
2016-10-19T06:11:51.980Z,1006.30
2016-10-19T06:16:49.186Z,1006.39
2016-10-19T06:21:46.917Z,1006.40
2016-10-19T06:26:43.105Z,1006.25
2016-10-19T06:31:39.561Z,1006.24
2016-10-19T06:36:35.941Z,1006.19
2016-10-19T06:41:32.714Z,1006.13
2016-10-19T06:46:29.745Z,1006.20
2016-10-19T06:51:26.087Z,1006.19
2016-10-19T06:56:23.149Z,1006.15
2016-10-19T07:01:19.637Z,1006.09
2016-10-19T07:06:16.146Z,1006.02
2016-10-19T07:11:12.539Z,1006.05
2016-10-19T07:16:09.006Z,1006.01
2016-10-19T07:21:06.195Z,1005.92
2016-10-19T07:26:03.150Z,1005.85
2016-10-19T07:30:59.742Z,1005.71
2016-10-19T07:35:56.300Z,1005.79
2016-10-19T07:40:52.732Z,1005.63
2016-10-19T07:45:49.087Z,1005.61
2016-10-19T07:50:45.377Z,1005.54
2016-10-19T07:55:41.885Z,1005.43
2016-10-19T08:00:38.145Z,1005.34
2016-10-19T08:05:34.992Z,1005.34
2016-10-19T08:10:31.385Z,1005.31
2016-10-19T08:15:28.043Z,1005.13
2016-10-19T08:20:24.273Z,1005.01
2016-10-19T08:25:21.260Z,1004.81
2016-10-19T08:30:17.594Z,1004.65
2016-10-19T08:35:14.676Z,1004.43
2016-10-19T08:40:11.219Z,1004.34
2016-10-19T08:45:08.297Z,1004.26
2016-10-19T08:50:05.280Z,1004.04
2016-10-19T08:55:02.634Z,1003.94
2016-10-19T08:59:59.032Z,1003.71
2016-10-19T09:04:55.128Z,1003.60
2016-10-19T09:09:52.023Z,1003.42
2016-10-19T09:14:48.466Z,1003.52
2016-10-19T09:19:44.615Z,1003.52
2016-10-19T09:24:41.070Z,1003.50
2016-10-19T09:29:37.417Z,1003.28
2016-10-19T09:34:33.922Z,1003.23
2016-10-19T09:39:30.304Z,1003.08
2016-10-19T09:44:26.837Z,1003.09
2016-10-19T09:49:23.813Z,1002.91
2016-10-19T09:54:20.273Z,1002.72
2016-10-19T09:59:16.795Z,1002.57
2016-10-19T10:04:13.553Z,1002.47
2016-10-19T10:09:11.632Z,1002.51
2016-10-19T10:14:07.605Z,1002.45
2016-10-19T10:19:04.370Z,1002.27
2016-10-19T10:24:00.779Z,1002.17
2016-10-19T10:28:57.286Z,1002.12
2016-10-19T10:33:53.912Z,1001.93
2016-10-19T10:38:50.105Z,1001.97
2016-10-19T10:43:46.796Z,1001.93
2016-10-19T10:48:42.863Z,1001.82
2016-10-19T10:53:39.345Z,1001.84
2016-10-19T10:58:35.761Z,1001.85
2016-10-19T11:03:31.969Z,1001.90
2016-10-19T11:08:31.329Z,1001.84
2016-10-19T11:13:27.344Z,1001.74
2016-10-19T11:18:24.110Z,1001.64
2016-10-19T11:23:21.066Z,1001.48
2016-10-19T11:28:17.698Z,1001.30
2016-10-19T11:33:16.843Z,1001.25
2016-10-19T11:38:13.261Z,1001.28
2016-10-19T11:43:10.229Z,1001.20
2016-10-19T11:48:06.601Z,1001.11
2016-10-19T11:53:02.654Z,1000.96
2016-10-19T11:57:59.371Z,1000.86
2016-10-19T12:02:55.791Z,1000.70
2016-10-19T12:07:52.231Z,1000.73
2016-10-19T12:12:48.757Z,1000.50
2016-10-19T12:17:45.493Z,1000.51
2016-10-19T12:22:41.908Z,1000.55
2016-10-19T12:27:38.964Z,1000.63
2016-10-19T12:32:35.278Z,1000.74
2016-10-19T12:37:31.405Z,1000.87
2016-10-19T12:42:27.473Z,1000.95
2016-10-19T12:47:24.002Z,1001.09
2016-10-19T12:52:20.415Z,1001.21
2016-10-19T12:57:16.882Z,1001.43
2016-10-19T13:02:13.294Z,1001.62
2016-10-19T13:07:09.755Z,1001.71
2016-10-19T13:12:06.710Z,1001.90
2016-10-19T13:17:03.516Z,1002.09
2016-10-19T13:22:00.366Z,1002.33
2016-10-19T13:26:56.780Z,1002.50
2016-10-19T13:31:53.302Z,1002.58
2016-10-19T13:36:49.857Z,1002.67
2016-10-19T13:41:46.715Z,1002.97
2016-10-19T13:46:45.652Z,1003.05
2016-10-19T13:51:42.105Z,1003.26
2016-10-19T13:56:38.528Z,1003.45
2016-10-19T14:01:34.486Z,1003.57
2016-10-19T14:06:30.689Z,1003.72
2016-10-19T14:11:27.028Z,1004.00
2016-10-19T14:16:24.008Z,1004.02
2016-10-19T14:21:20.651Z,1004.28
2016-10-19T14:26:17.488Z,1004.22
2016-10-19T14:31:14.001Z,1004.30
2016-10-19T14:36:11.867Z,1004.44
2016-10-19T14:41:08.113Z,1004.60
2016-10-19T14:46:04.693Z,1004.68
2016-10-19T14:51:01.200Z,1004.71
2016-10-19T14:55:57.560Z,1004.86
2016-10-19T15:00:54.527Z,1004.93
2016-10-19T15:05:52.347Z,1004.92
2016-10-19T15:10:48.726Z,1004.99
2016-10-19T15:15:45.111Z,1005.09
2016-10-19T15:20:42.728Z,1005.20
2016-10-19T15:25:39.722Z,1005.32
2016-10-19T15:30:38.616Z,1005.37
2016-10-19T15:35:34.480Z,1005.45
2016-10-19T15:40:31.309Z,1005.62
2016-10-19T15:45:27.409Z,1005.70
2016-10-19T15:50:23.823Z,1005.77
2016-10-19T15:55:20.450Z,1005.93
2016-10-19T16:00:16.722Z,1005.92
2016-10-19T16:05:13.327Z,1005.99
2016-10-19T16:10:12.266Z,1006.03
2016-10-19T16:15:07.974Z,1006.16
2016-10-19T16:20:04.406Z,1006.22
2016-10-19T16:25:02.146Z,1006.26
2016-10-19T16:29:58.920Z,1006.30
2016-10-19T16:34:55.424Z,1006.44
2016-10-19T16:39:51.885Z,1006.49
2016-10-19T16:44:48.306Z,1006.59
2016-10-19T16:49:45.265Z,1006.67
2016-10-19T16:54:41.527Z,1006.67
2016-10-19T16:59:38.187Z,1006.71
2016-10-19T17:04:34.565Z,1006.70
2016-10-19T17:09:31.365Z,1006.76
2016-10-19T17:14:28.546Z,1006.87
2016-10-19T17:19:25.122Z,1006.83
2016-10-19T17:24:22.145Z,1006.85
2016-10-19T17:29:18.905Z,1006.85
2016-10-19T17:34:15.445Z,1006.81
2016-10-19T17:39:11.846Z,1006.83
2016-10-19T17:44:08.205Z,1006.79
2016-10-19T17:49:04.663Z,1006.86
2016-10-19T17:54:01.153Z,1006.86
2016-10-19T17:58:57.460Z,1006.83
2016-10-19T18:03:54.408Z,1006.94
2016-10-19T18:08:51.885Z,1007.00
2016-10-19T18:13:48.505Z,1007.00
2016-10-19T18:18:44.918Z,1006.97
2016-10-19T18:23:43.705Z,1006.98
2016-10-19T18:28:40.485Z,1006.96
2016-10-19T18:33:36.653Z,1006.95
2016-10-19T18:38:33.599Z,1006.96
2016-10-19T18:43:30.143Z,1006.95
2016-10-19T18:48:26.718Z,1006.93
2016-10-19T18:53:23.205Z,1006.89
2016-10-19T18:58:19.699Z,1006.89
2016-10-19T19:03:16.306Z,1006.88
2016-10-19T19:08:12.822Z,1007.01
2016-10-19T19:13:09.368Z,1006.89
2016-10-19T19:18:05.649Z,1006.93
2016-10-19T19:23:01.608Z,1006.96
2016-10-19T19:27:58.847Z,1006.86
2016-10-19T19:32:55.721Z,1006.94
2016-10-19T19:37:52.910Z,1007.04
2016-10-19T19:42:49.626Z,1007.07
2016-10-19T19:47:46.109Z,1007.07
2016-10-19T19:52:43.064Z,1007.24
2016-10-19T19:57:39.591Z,1007.26
2016-10-19T20:02:35.951Z,1007.19
2016-10-19T20:07:34.927Z,1007.22
2016-10-19T20:12:30.902Z,1007.06
2016-10-19T20:17:27.172Z,1007.05
2016-10-19T20:22:23.877Z,1007.03
2016-10-19T20:27:20.050Z,1007.04
2016-10-19T20:32:16.590Z,1007.10
2016-10-19T20:37:15.726Z,1007.02
2016-10-19T20:42:11.913Z,1006.99
2016-10-19T20:47:08.597Z,1007.05
2016-10-19T20:52:04.538Z,1007.06
2016-10-19T20:57:01.214Z,1007.01
2016-10-19T21:02:00.501Z,1007.01
2016-10-19T21:06:56.388Z,1007.12
2016-10-19T21:11:52.776Z,1007.07
2016-10-19T21:16:51.717Z,1007.16
2016-10-19T21:21:47.838Z,1007.12
2016-10-19T21:26:45.262Z,1007.18
2016-10-19T21:31:41.406Z,1007.15
2016-10-19T21:36:38.199Z,1007.17
2016-10-19T21:41:34.410Z,1007.12
2016-10-19T21:46:32.636Z,1007.09
2016-10-19T21:51:29.277Z,1007.09
2016-10-19T21:56:26.095Z,1007.20
2016-10-19T22:01:23.193Z,1007.11
2016-10-19T22:06:19.506Z,1007.12
2016-10-19T22:11:18.427Z,1007.08
2016-10-19T22:16:14.451Z,1007.05
2016-10-19T22:21:10.775Z,1007.00
2016-10-19T22:26:08.096Z,1007.03
2016-10-19T22:31:05.105Z,1006.93
2016-10-19T22:36:01.583Z,1006.88
2016-10-19T22:40:58.397Z,1006.91
2016-10-19T22:45:54.789Z,1006.89
2016-10-19T22:50:51.838Z,1006.98
2016-10-19T22:55:52.800Z,1006.83
2016-10-19T23:00:48.326Z,1006.84
2016-10-19T23:05:45.670Z,1006.92
2016-10-19T23:10:43.075Z,1006.82
2016-10-19T23:15:39.051Z,1006.85
2016-10-19T23:20:35.538Z,1006.90
2016-10-19T23:25:31.825Z,1006.87
2016-10-19T23:30:28.121Z,1006.94
2016-10-19T23:35:24.532Z,1006.84
2016-10-19T23:40:21.178Z,1006.95
2016-10-19T23:45:17.625Z,1006.99
2016-10-19T23:50:14.291Z,1006.99
2016-10-19T23:55:10.648Z,1006.92
